Time;durP1;ratioP1;P1;durP2;ratioP2;P2;SDS_P1;SDS_P2;PMS_P1;PMS_P2;Temp;Humidity;BMP_temperature;BMP_pressure;BME280_temperature;BME280_humidity;BME280_pressure;Samples;Min_cycle;Max_cycle;Signal;HPM_P1;HPM_P2
2023/09/30 00:01:01;;;;;;;0.10;0.10;;;12.90;99.90;;;;;;5089525;28;20514;-77
2023/09/30 00:03:27;;;;;;;0.10;0.10;;;12.80;99.90;;;;;;5087923;28;20450;-77
2023/09/30 00:05:53;;;;;;;0.10;0.10;;;12.80;99.90;;;;;;5091976;28;21085;-77
2023/09/30 00:08:19;;;;;;;0.20;0.20;;;12.90;99.90;;;;;;5086005;28;20597;-77
2023/09/30 00:10:45;;;;;;;0.10;0.10;;;12.80;99.90;;;;;;5088232;28;20215;-77
2023/09/30 00:13:11;;;;;;;0.10;0.10;;;12.80;99.90;;;;;;5089624;28;20926;-77
2023/09/30 00:15:36;;;;;;;0.10;0.10;;;12.70;99.90;;;;;;5089190;28;20446;-77
2023/09/30 00:18:02;;;;;;;0.10;0.10;;;12.80;99.90;;;;;;5089379;28;20188;-77
2023/09/30 00:20:28;;;;;;;0.10;0.10;;;12.70;99.90;;;;;;5070714;28;20220;-77
2023/09/30 00:22:54;;;;;;;0.10;0.10;;;12.80;99.90;;;;;;5092072;28;20187;-78
2023/09/30 00:25:20;;;;;;;0.10;0.10;;;12.70;99.90;;;;;;5087965;28;20442;-77
2023/09/30 00:27:46;;;;;;;0.10;0.10;;;12.70;99.90;;;;;;5086868;28;20189;-77
2023/09/30 00:30:12;;;;;;;0.10;0.10;;;12.70;99.90;;;;;;5090766;28;20937;-77
2023/09/30 00:32:39;;;;;;;0.10;0.10;;;12.80;99.90;;;;;;5089426;28;20500;-77
2023/09/30 00:35:09;;;;;;;0.20;0.20;;;12.70;99.90;;;;;;5088118;28;20641;-77
2023/09/30 00:37:34;;;;;;;0.20;0.20;;;12.70;99.90;;;;;;5070382;28;21047;-78
2023/09/30 00:40:00;;;;;;;0.10;0.10;;;12.80;99.90;;;;;;5090359;28;20571;-77
2023/09/30 00:42:26;;;;;;;0.20;0.20;;;12.80;99.90;;;;;;5086620;28;20191;-77
2023/09/30 00:44:52;;;;;;;0.10;0.10;;;12.80;99.90;;;;;;5092294;28;20177;-77
2023/09/30 00:47:17;;;;;;;0.10;0.10;;;12.80;99.90;;;;;;5074208;28;20981;-77
2023/09/30 00:49:43;;;;;;;0.20;0.20;;;12.80;99.90;;;;;;5068851;28;20189;-77
2023/09/30 00:52:09;;;;;;;0.10;0.10;;;12.70;99.90;;;;;;5070841;28;20657;-77
2023/09/30 00:54:37;;;;;;;0.10;0.10;;;12.60;99.90;;;;;;5079111;28;20258;-77
2023/09/30 00:57:03;;;;;;;0.10;0.10;;;12.70;99.90;;;;;;5091098;28;20438;-77
2023/09/30 00:59:32;;;;;;;0.10;0.10;;;12.60;99.90;;;;;;5070223;28;20490;-77
2023/09/30 01:02:00;;;;;;;0.20;0.20;;;12.60;99.90;;;;;;5102731;28;20250;-77
2023/09/30 01:04:27;;;;;;;0.10;0.10;;;12.60;99.90;;;;;;5088539;28;20433;-77
2023/09/30 01:06:52;;;;;;;0.10;0.10;;;12.60;99.90;;;;;;5097019;28;20929;-77
2023/09/30 01:09:19;;;;;;;0.10;0.10;;;12.60;99.90;;;;;;5092494;28;20441;-78
2023/09/30 01:11:45;;;;;;;0.10;0.10;;;12.60;99.90;;;;;;5106138;28;20211;-77
2023/09/30 01:14:30;;;;;;;0.20;0.20;;;12.50;99.90;;;;;;5091535;28;20875;-78
2023/09/30 01:16:57;;;;;;;0.20;0.20;;;12.60;99.90;;;;;;5089115;28;20192;-77
2023/09/30 01:19:24;;;;;;;0.10;0.10;;;12.60;99.90;;;;;;5089537;28;20463;-76
2023/09/30 01:21:59;;;;;;;0.17;0.17;;;12.60;99.90;;;;;;5090904;28;21019;-76
2023/09/30 01:24:26;;;;;;;0.10;0.10;;;12.60;99.90;;;;;;5095115;28;20483;-77
2023/09/30 01:26:52;;;;;;;0.20;0.20;;;12.50;99.90;;;;;;5093442;28;20526;-76
2023/09/30 01:29:17;;;;;;;0.10;0.10;;;12.40;99.90;;;;;;5092664;28;20493;-76
2023/09/30 01:31:43;;;;;;;0.20;0.20;;;12.40;99.90;;;;;;5069160;28;20203;-77
2023/09/30 01:34:10;;;;;;;0.10;0.10;;;12.40;99.90;;;;;;5088535;28;20235;-76
2023/09/30 01:36:36;;;;;;;0.20;0.20;;;12.30;99.90;;;;;;5091406;28;20268;-76
2023/09/30 01:39:02;;;;;;;0.10;0.10;;;12.30;99.90;;;;;;5091008;28;20538;-77
2023/09/30 01:41:28;;;;;;;0.10;0.10;;;12.30;99.90;;;;;;5090488;28;20173;-76
2023/09/30 01:43:54;;;;;;;0.20;0.20;;;12.20;99.90;;;;;;5098052;28;20435;-77
2023/09/30 01:46:19;;;;;;;0.20;0.20;;;12.40;99.90;;;;;;5091948;28;20185;-77
2023/09/30 01:48:45;;;;;;;0.10;0.10;;;12.40;99.90;;;;;;5079336;28;20431;-75
2023/09/30 01:51:11;;;;;;;0.10;0.10;;;12.40;99.90;;;;;;5087112;28;20629;-77
2023/09/30 01:53:36;;;;;;;0.10;0.10;;;12.30;99.90;;;;;;5092248;28;20649;-77
2023/09/30 01:56:02;;;;;;;0.13;0.13;;;12.20;99.90;;;;;;5090374;28;20541;-77
2023/09/30 01:58:28;;;;;;;0.20;0.20;;;12.20;99.90;;;;;;5092062;28;20637;-76
2023/09/30 02:00:53;;;;;;;0.20;0.20;;;12.10;99.90;;;;;;5092957;28;20248;-77
2023/09/30 02:03:19;;;;;;;0.10;0.10;;;12.00;99.90;;;;;;5104850;28;20192;-76
2023/09/30 02:05:45;;;;;;;0.13;0.13;;;12.00;99.90;;;;;;5074131;28;20285;-76
2023/09/30 02:08:10;;;;;;;0.20;0.20;;;12.10;99.90;;;;;;5092003;28;20231;-77
2023/09/30 02:10:36;;;;;;;0.20;0.20;;;12.10;99.90;;;;;;5089054;28;20192;-77
2023/09/30 02:13:05;;;;;;;0.20;0.20;;;11.90;99.90;;;;;;5088193;28;20191;-77
2023/09/30 02:15:31;;;;;;;0.20;0.20;;;12.00;99.90;;;;;;5093186;28;20484;-76
2023/09/30 02:17:57;;;;;;;0.10;0.10;;;12.10;99.90;;;;;;5088512;28;20959;-77
2023/09/30 02:20:25;;;;;;;0.20;0.20;;;12.20;99.90;;;;;;5071666;28;20471;-76
2023/09/30 02:22:52;;;;;;;0.20;0.20;;;12.30;99.90;;;;;;5088398;28;20185;-77
2023/09/30 02:25:18;;;;;;;0.10;0.10;;;12.20;99.90;;;;;;5072304;28;20480;-76
2023/09/30 02:27:44;;;;;;;0.10;0.10;;;12.20;99.90;;;;;;5091754;28;20439;-76
2023/09/30 02:30:11;;;;;;;0.10;0.10;;;12.30;99.90;;;;;;5090389;28;20213;-76
2023/09/30 02:32:45;;;;;;;0.10;0.10;;;12.40;99.90;;;;;;5091274;28;20438;-76
2023/09/30 02:35:11;;;;;;;0.10;0.10;;;12.40;99.90;;;;;;5091275;28;20438;-76
2023/09/30 02:37:37;;;;;;;0.10;0.10;;;12.50;99.90;;;;;;5069743;28;20447;-76
2023/09/30 02:40:09;;;;;;;0.10;0.10;;;12.40;99.90;;;;;;5091171;28;20743;-77
2023/09/30 02:42:35;;;;;;;0.20;0.20;;;12.40;99.90;;;;;;5074332;28;20427;-77
2023/09/30 02:45:01;;;;;;;0.20;0.20;;;12.40;99.90;;;;;;5089014;28;20451;-77
2023/09/30 02:47:26;;;;;;;0.10;0.10;;;12.30;99.90;;;;;;5072984;28;20446;-76
2023/09/30 02:49:52;;;;;;;0.10;0.10;;;12.30;99.90;;;;;;5091625;28;20177;-77
2023/09/30 02:52:18;;;;;;;0.10;0.10;;;12.30;99.90;;;;;;5071354;28;20244;-77
2023/09/30 02:54:43;;;;;;;0.20;0.20;;;12.40;99.90;;;;;;5089655;28;20185;-77
2023/09/30 02:57:09;;;;;;;0.10;0.10;;;12.40;99.90;;;;;;5071409;28;20189;-77
2023/09/30 02:59:36;;;;;;;0.20;0.20;;;12.20;99.90;;;;;;5088603;28;20229;-76
2023/09/30 03:02:01;;;;;;;0.10;0.10;;;12.30;99.90;;;;;;5089956;28;20339;-77
2023/09/30 03:04:28;;;;;;;0.10;0.10;;;12.30;99.90;;;;;;5076801;28;20935;-77
2023/09/30 03:06:56;;;;;;;0.10;0.10;;;12.40;99.90;;;;;;5072442;28;20271;-77
2023/09/30 03:09:22;;;;;;;0.20;0.20;;;12.50;99.90;;;;;;5071146;28;20435;-76
2023/09/30 03:11:48;;;;;;;0.10;0.10;;;12.50;99.90;;;;;;5096922;28;20491;-77
2023/09/30 03:14:13;;;;;;;0.10;0.10;;;12.50;99.90;;;;;;5071783;28;20439;-77
2023/09/30 03:16:41;;;;;;;0.10;0.10;;;12.50;99.90;;;;;;5076650;28;20230;-77
2023/09/30 03:19:08;;;;;;;0.10;0.10;;;12.50;99.90;;;;;;5089279;28;20181;-77
2023/09/30 03:21:35;;;;;;;0.10;0.10;;;12.60;99.90;;;;;;5095739;28;20469;-76
2023/09/30 03:24:04;;;;;;;0.10;0.10;;;12.60;99.90;;;;;;5098330;28;20927;-77
2023/09/30 03:26:31;;;;;;;0.10;0.10;;;12.60;99.90;;;;;;5085170;28;20490;-77
2023/09/30 03:28:57;;;;;;;0.20;0.20;;;12.30;99.90;;;;;;5069334;28;20886;-76
2023/09/30 03:31:22;;;;;;;0.10;0.10;;;12.10;99.90;;;;;;5093672;28;20472;-77
2023/09/30 03:33:53;;;;;;;0.20;0.20;;;12.00;99.90;;;;;;5098294;28;20517;-76
2023/09/30 03:36:20;;;;;;;0.20;0.20;;;12.00;99.90;;;;;;5111495;28;20176;-75
2023/09/30 03:38:46;;;;;;;0.10;0.10;;;11.90;99.90;;;;;;5088344;28;20862;-76
2023/09/30 03:41:13;;;;;;;0.20;0.20;;;11.80;99.90;;;;;;5089481;28;20471;-76
2023/09/30 03:43:41;;;;;;;0.20;0.20;;;11.80;99.90;;;;;;5087765;28;20195;-76
2023/09/30 03:46:07;;;;;;;0.20;0.20;;;11.80;99.90;;;;;;5088768;28;20454;-76
2023/09/30 03:48:33;;;;;;;0.20;0.20;;;11.90;99.90;;;;;;5090883;28;20417;-77
2023/09/30 03:51:13;;;;;;;0.20;0.20;;;11.90;99.90;;;;;;5072210;28;20460;-76
2023/09/30 03:53:43;;;;;;;0.20;0.20;;;11.90;99.90;;;;;;5090781;28;20414;-77
2023/09/30 03:56:11;;;;;;;0.10;0.10;;;12.00;99.90;;;;;;5064080;28;20439;-76
2023/09/30 03:58:41;;;;;;;0.10;0.10;;;12.00;99.90;;;;;;5089903;28;20540;-76
2023/09/30 04:01:07;;;;;;;0.10;0.10;;;12.00;99.90;;;;;;5087362;28;20643;-76
2023/09/30 04:03:33;;;;;;;0.13;0.13;;;12.00;99.90;;;;;;5083879;28;20453;-76
2023/09/30 04:05:59;;;;;;;0.20;0.20;;;11.90;99.90;;;;;;5089810;28;20443;-76
2023/09/30 04:08:24;;;;;;;0.20;0.20;;;11.90;99.90;;;;;;5090874;28;20933;-76
2023/09/30 04:10:50;;;;;;;0.10;0.10;;;11.80;99.90;;;;;;5088619;28;20189;-76
2023/09/30 04:13:16;;;;;;;0.20;0.20;;;11.80;99.90;;;;;;5070640;28;20170;-77
2023/09/30 04:15:44;;;;;;;0.17;0.17;;;11.70;99.90;;;;;;5089101;28;20691;-76
2023/09/30 04:18:11;;;;;;;0.20;0.20;;;11.70;99.90;;;;;;5088938;28;20438;-76
2023/09/30 04:20:39;;;;;;;0.10;0.10;;;11.60;99.90;;;;;;5074287;28;20628;-76
2023/09/30 04:23:06;;;;;;;0.20;0.20;;;11.50;99.90;;;;;;5096905;28;20423;-76
2023/09/30 04:25:32;;;;;;;0.20;0.20;;;11.40;99.90;;;;;;5087505;28;20872;-76
2023/09/30 04:27:57;;;;;;;0.10;0.10;;;11.40;99.90;;;;;;5088809;28;20443;-76
2023/09/30 04:30:23;;;;;;;0.20;0.20;;;11.40;99.90;;;;;;5073172;28;20262;-76
2023/09/30 04:32:48;;;;;;;0.20;0.20;;;11.40;99.90;;;;;;5075122;28;20200;-76
2023/09/30 04:35:14;;;;;;;0.20;0.20;;;11.40;99.90;;;;;;5091415;28;20189;-76
2023/09/30 04:37:40;;;;;;;0.20;0.20;;;11.30;99.90;;;;;;5090281;28;20165;-77
2023/09/30 04:40:09;;;;;;;0.20;0.20;;;11.40;99.90;;;;;;5097603;28;20886;-76
2023/09/30 04:42:37;;;;;;;0.20;0.20;;;11.30;99.90;;;;;;5088664;28;20192;-77
2023/09/30 04:45:07;;;;;;;0.20;0.20;;;11.30;99.90;;;;;;5090582;28;20438;-77
2023/09/30 04:47:33;;;;;;;0.20;0.20;;;11.30;99.90;;;;;;5102176;28;20444;-76
2023/09/30 04:49:58;;;;;;;0.20;0.20;;;11.30;99.90;;;;;;5074414;28;20439;-76
2023/09/30 04:52:27;;;;;;;0.20;0.20;;;11.30;99.90;;;;;;5091154;28;20439;-76
2023/09/30 04:54:53;;;;;;;0.20;0.20;;;11.30;99.90;;;;;;5089208;28;20547;-76
2023/09/30 04:57:19;;;;;;;0.20;0.20;;;11.30;99.90;;;;;;5090446;28;20434;-76
2023/09/30 04:59:46;;;;;;;0.20;0.20;;;11.30;99.90;;;;;;5100168;28;20240;-76
2023/09/30 05:02:14;;;;;;;0.20;0.20;;;11.30;99.90;;;;;;5094841;28;20449;-76
2023/09/30 05:04:40;;;;;;;0.20;0.20;;;11.30;99.90;;;;;;5095340;28;20470;-76
2023/09/30 05:07:06;;;;;;;0.20;0.20;;;11.30;99.90;;;;;;5078094;28;20490;-76
2023/09/30 05:09:31;;;;;;;0.20;0.20;;;11.30;99.90;;;;;;5089592;28;20188;-76
2023/09/30 05:11:57;;;;;;;0.20;0.20;;;11.20;99.90;;;;;;5084486;28;20208;-76
2023/09/30 05:14:22;;;;;;;0.10;0.10;;;11.20;99.90;;;;;;5088968;28;20180;-77
2023/09/30 05:16:48;;;;;;;0.20;0.20;;;11.30;99.90;;;;;;5088804;28;20660;-76
2023/09/30 05:19:13;;;;;;;0.20;0.20;;;11.20;99.90;;;;;;5100246;28;20177;-75
2023/09/30 05:21:39;;;;;;;0.20;0.20;;;11.30;99.90;;;;;;5090822;28;20197;-76
2023/09/30 05:24:05;;;;;;;0.20;0.20;;;11.20;99.90;;;;;;5091287;28;20204;-76
2023/09/30 05:26:31;;;;;;;0.20;0.20;;;11.20;99.90;;;;;;5090543;28;20246;-76
2023/09/30 05:28:57;;;;;;;0.20;0.20;;;11.20;99.90;;;;;;5094574;28;20431;-76
2023/09/30 05:31:22;;;;;;;0.20;0.20;;;11.20;99.90;;;;;;5092352;28;20201;-76
2023/09/30 05:33:48;;;;;;;0.20;0.20;;;11.20;99.90;;;;;;5084164;28;20193;-76
2023/09/30 05:36:13;;;;;;;0.20;0.20;;;11.20;99.90;;;;;;5092401;28;20177;-76
2023/09/30 05:38:39;;;;;;;0.20;0.20;;;11.20;99.90;;;;;;5067967;28;20177;-77
2023/09/30 05:41:06;;;;;;;0.20;0.20;;;11.30;99.90;;;;;;5107555;28;20696;-77
2023/09/30 05:43:32;;;;;;;0.20;0.20;;;11.30;99.90;;;;;;5105025;28;20568;-77
2023/09/30 05:45:58;;;;;;;0.20;0.20;;;11.30;99.90;;;;;;5106760;28;20568;-77
2023/09/30 05:48:24;;;;;;;0.20;0.20;;;11.40;99.90;;;;;;5076498;28;20177;-77
2023/09/30 05:50:49;;;;;;;0.20;0.20;;;11.40;99.90;;;;;;5095452;28;20592;-76
2023/09/30 05:53:15;;;;;;;0.20;0.20;;;11.40;99.90;;;;;;5093669;28;20177;-77
2023/09/30 05:55:43;;;;;;;0.20;0.20;;;11.50;99.90;;;;;;5102358;28;20195;-78
2023/09/30 05:58:16;;;;;;;0.20;0.20;;;11.50;99.90;;;;;;5095091;28;20315;-76
2023/09/30 06:00:42;;;;;;;0.20;0.20;;;11.50;99.90;;;;;;5074055;28;20482;-77
2023/09/30 06:03:08;;;;;;;0.20;0.20;;;11.60;99.90;;;;;;5096769;28;20513;-77
2023/09/30 06:05:34;;;;;;;0.20;0.20;;;11.60;99.90;;;;;;5110856;28;20431;-77
2023/09/30 06:08:04;;;;;;;0.20;0.20;;;11.60;99.90;;;;;;5096364;28;20914;-77
2023/09/30 06:10:30;;;;;;;0.20;0.20;;;11.70;99.90;;;;;;5078210;28;20220;-77
2023/09/30 06:12:57;;;;;;;0.20;0.20;;;11.70;99.90;;;;;;5102462;28;20424;-77
2023/09/30 06:15:25;;;;;;;0.20;0.20;;;11.70;99.90;;;;;;5085033;28;21939;-77
2023/09/30 06:17:52;;;;;;;0.20;0.20;;;11.80;99.90;;;;;;5098476;28;20498;-77
2023/09/30 06:20:22;;;;;;;0.20;0.20;;;11.80;99.90;;;;;;5091568;28;20532;-77
2023/09/30 06:22:49;;;;;;;0.20;0.20;;;11.80;99.90;;;;;;5075886;28;20434;-77
2023/09/30 06:25:16;;;;;;;0.20;0.20;;;11.90;99.90;;;;;;5089850;28;20474;-77
2023/09/30 06:27:43;;;;;;;0.20;0.20;;;12.00;99.90;;;;;;5097641;28;20430;-76
2023/09/30 06:30:09;;;;;;;0.20;0.20;;;12.10;99.90;;;;;;5085352;28;20447;-77
2023/09/30 06:32:35;;;;;;;0.10;0.10;;;12.10;99.90;;;;;;5106726;28;20438;-76
2023/09/30 06:35:03;;;;;;;0.10;0.10;;;12.20;99.90;;;;;;5095421;28;20446;-77
2023/09/30 06:37:29;;;;;;;0.20;0.20;;;12.30;99.90;;;;;;5093930;28;20173;-76
2023/09/30 06:39:55;;;;;;;0.20;0.20;;;12.40;99.90;;;;;;5074487;28;20538;-76
2023/09/30 06:42:21;;;;;;;0.10;0.10;;;12.50;99.90;;;;;;5076863;28;21101;-77
2023/09/30 06:44:46;;;;;;;0.10;0.10;;;12.50;99.90;;;;;;5076714;28;20439;-76
2023/09/30 06:47:12;;;;;;;0.20;0.20;;;12.50;99.90;;;;;;5078263;28;20215;-77
2023/09/30 06:49:38;;;;;;;0.20;0.20;;;12.60;99.90;;;;;;5076075;28;21044;-76
2023/09/30 06:52:04;;;;;;;0.20;0.20;;;12.60;99.90;;;;;;5085075;28;20706;-76
2023/09/30 06:54:31;;;;;;;0.10;0.10;;;12.70;99.90;;;;;;5089955;28;20523;-77
2023/09/30 06:56:56;;;;;;;0.13;0.13;;;12.70;99.90;;;;;;5085335;28;20246;-76
2023/09/30 06:59:24;;;;;;;0.20;0.20;;;12.70;99.90;;;;;;5086467;28;20479;-77
2023/09/30 07:01:51;;;;;;;0.10;0.10;;;12.70;99.90;;;;;;5086274;28;20272;-77
2023/09/30 07:04:16;;;;;;;0.20;0.20;;;12.70;99.90;;;;;;5078301;28;20454;-76
2023/09/30 07:06:42;;;;;;;0.10;0.10;;;12.70;99.90;;;;;;5088129;28;20806;-76
2023/09/30 07:09:07;;;;;;;0.10;0.10;;;12.80;99.90;;;;;;5076941;28;20201;-76
2023/09/30 07:11:33;;;;;;;0.10;0.10;;;12.80;99.90;;;;;;5072286;28;20177;-75
2023/09/30 07:13:58;;;;;;;0.10;0.10;;;12.90;99.90;;;;;;5072125;28;20184;-76
2023/09/30 07:16:24;;;;;;;0.10;0.10;;;12.90;99.90;;;;;;5092834;28;20201;-76
2023/09/30 07:18:50;;;;;;;0.10;0.10;;;13.00;99.90;;;;;;5094500;28;20184;-77
2023/09/30 07:21:16;;;;;;;0.10;0.10;;;13.20;99.90;;;;;;5078685;28;20252;-77
2023/09/30 07:23:42;;;;;;;0.10;0.10;;;13.30;99.90;;;;;;5102131;28;20485;-77
2023/09/30 07:26:07;;;;;;;0.10;0.10;;;13.50;99.90;;;;;;5094898;28;20430;-77
2023/09/30 07:28:33;;;;;;;0.10;0.10;;;13.60;99.90;;;;;;5096459;28;20521;-75
2023/09/30 07:30:59;;;;;;;0.10;0.10;;;13.80;99.90;;;;;;5095099;28;21834;-78
2023/09/30 07:33:24;;;;;;;0.10;0.10;;;13.90;99.90;;;;;;5097694;28;20188;-77
2023/09/30 07:35:50;;;;;;;0.10;0.10;;;13.90;99.90;;;;;;5087090;28;20227;-77
2023/09/30 07:38:16;;;;;;;0.10;0.10;;;14.00;99.90;;;;;;5095859;28;20187;-78
2023/09/30 07:40:41;;;;;;;0.10;0.10;;;14.10;99.90;;;;;;5091643;28;20308;-78
2023/09/30 07:43:07;;;;;;;0.10;0.10;;;14.30;99.90;;;;;;5090689;28;20181;-77
2023/09/30 07:45:33;;;;;;;0.10;0.10;;;14.50;99.90;;;;;;5091881;28;20551;-77
2023/09/30 07:47:59;;;;;;;0.10;0.10;;;14.60;99.90;;;;;;5066771;28;20182;-77
2023/09/30 07:50:24;;;;;;;0.10;0.10;;;14.70;99.90;;;;;;5080182;28;20184;-78
2023/09/30 07:52:50;;;;;;;0.10;0.10;;;14.60;99.90;;;;;;5077656;28;20431;-78
2023/09/30 07:55:16;;;;;;;0.10;0.10;;;14.70;99.90;;;;;;5079861;28;20611;-78
2023/09/30 07:57:43;;;;;;;0.10;0.10;;;14.80;99.90;;;;;;5078723;28;20238;-78
2023/09/30 08:00:14;;;;;;;0.10;0.10;;;14.90;99.90;;;;;;5081399;28;20236;-77
2023/09/30 08:02:43;;;;;;;0.10;0.10;;;15.10;99.90;;;;;;5058183;28;20436;-77
2023/09/30 08:05:10;;;;;;;0.10;0.10;;;15.30;99.90;;;;;;5060221;28;20444;-77
2023/09/30 08:07:35;;;;;;;0.10;0.10;;;15.40;99.90;;;;;;5079715;28;20479;-78
2023/09/30 08:10:06;;;;;;;0.10;0.10;;;15.50;99.90;;;;;;5075561;28;20435;-78
2023/09/30 08:12:32;;;;;;;0.10;0.10;;;15.70;99.90;;;;;;5063627;28;20186;-78
2023/09/30 08:14:57;;;;;;;0.10;0.10;;;15.90;99.90;;;;;;5086316;28;20947;-79
2023/09/30 08:17:23;;;;;;;0.10;0.10;;;16.00;99.90;;;;;;5085972;28;20443;-78
2023/09/30 08:19:49;;;;;;;0.00;0.00;;;16.00;99.90;;;;;;5064794;28;20236;-78
2023/09/30 08:22:14;;;;;;;0.00;0.00;;;16.10;99.90;;;;;;5094939;28;21855;-77
2023/09/30 08:24:40;;;;;;;0.00;0.00;;;16.20;99.90;;;;;;5101068;28;20173;-78
2023/09/30 08:27:06;;;;;;;0.00;0.00;;;16.30;99.90;;;;;;5101969;28;20181;-78
2023/09/30 08:29:36;;;;;;;0.00;0.00;;;16.30;99.90;;;;;;5085848;28;20672;-78
2023/09/30 08:32:02;;;;;;;0.00;0.00;;;16.40;99.90;;;;;;5098015;28;20184;-80
2023/09/30 08:34:28;;;;;;;0.10;0.10;;;16.60;99.90;;;;;;5097327;28;20434;-80
2023/09/30 08:36:54;;;;;;;0.10;0.10;;;16.70;99.90;;;;;;5090609;28;20443;-80
2023/09/30 08:39:19;;;;;;;0.10;0.10;;;16.80;99.90;;;;;;5086490;28;20545;-79
2023/09/30 08:41:45;;;;;;;0.00;0.00;;;16.80;99.90;;;;;;5093157;28;20180;-80
2023/09/30 08:44:12;;;;;;;0.10;0.10;;;16.90;99.90;;;;;;5092104;28;20184;-80
2023/09/30 08:46:39;;;;;;;0.10;0.10;;;17.00;99.90;;;;;;5087579;28;20445;-80
2023/09/30 08:49:08;;;;;;;0.10;0.10;;;17.20;99.90;;;;;;5093540;28;20435;-80
2023/09/30 08:51:35;;;;;;;0.10;0.10;;;17.20;99.90;;;;;;5103839;28;20518;-80
2023/09/30 08:54:03;;;;;;;0.10;0.10;;;17.30;99.90;;;;;;5095152;28;20427;-80
2023/09/30 08:56:32;;;;;;;0.03;0.00;;;17.40;99.90;;;;;;5080016;28;20449;-78
2023/09/30 08:58:59;;;;;;;0.00;0.00;;;17.40;99.90;;;;;;5076074;28;20439;-79
2023/09/30 09:01:26;;;;;;;0.10;0.10;;;17.60;99.90;;;;;;5077504;28;20938;-80
2023/09/30 09:03:52;;;;;;;0.10;0.10;;;17.80;99.90;;;;;;5098821;28;20437;-81
2023/09/30 09:06:22;;;;;;;0.10;0.03;;;18.00;99.90;;;;;;5102027;28;20442;-81
2023/09/30 09:08:48;;;;;;;0.10;0.10;;;18.00;99.90;;;;;;5081418;28;20275;-79
2023/09/30 09:11:14;;;;;;;0.10;0.10;;;18.20;99.90;;;;;;5100079;28;20517;-80
2023/09/30 09:13:49;;;;;;;0.10;0.10;;;18.40;99.90;;;;;;5111867;28;20197;-80
2023/09/30 09:16:15;;;;;;;0.10;0.10;;;18.50;99.90;;;;;;5102104;28;20426;-79
2023/09/30 09:18:41;;;;;;;0.00;0.00;;;18.60;99.90;;;;;;5103994;28;21695;-79
2023/09/30 09:21:10;;;;;;;0.00;0.00;;;18.50;99.90;;;;;;5098467;28;20478;-79
2023/09/30 09:23:47;;;;;;;0.10;0.10;;;18.40;99.90;;;;;;5111593;27;20203;-80
2023/09/30 09:26:24;;;;;;;0.00;0.00;;;18.10;99.90;;;;;;5092950;28;20806;-80
2023/09/30 09:28:51;;;;;;;0.00;0.00;;;18.00;99.90;;;;;;5086873;28;20876;-80
2023/09/30 09:31:27;;;;;;;0.00;0.00;;;18.20;99.90;;;;;;5098956;28;20509;-80
2023/09/30 09:33:53;;;;;;;0.10;0.10;;;18.30;99.90;;;;;;5097919;28;20450;-80
2023/09/30 09:36:19;;;;;;;0.10;0.10;;;18.30;99.90;;;;;;5075209;28;20434;-79
2023/09/30 09:38:48;;;;;;;0.00;0.00;;;18.20;99.90;;;;;;5094467;28;20173;-80
2023/09/30 09:41:15;;;;;;;0.10;0.10;;;18.30;99.90;;;;;;5094948;28;20493;-80
2023/09/30 09:43:42;;;;;;;0.00;0.00;;;18.50;99.90;;;;;;5077183;28;20473;-80
2023/09/30 09:46:08;;;;;;;0.10;0.00;;;19.10;99.90;;;;;;5096537;28;20431;-80
2023/09/30 09:48:37;;;;;;;0.10;0.10;;;18.80;99.90;;;;;;5099699;28;20428;-80
2023/09/30 09:51:07;;;;;;;0.00;0.00;;;18.30;99.90;;;;;;5099305;28;20173;-80
2023/09/30 09:53:36;;;;;;;0.00;0.00;;;17.80;99.90;;;;;;5103861;28;20418;-80
2023/09/30 09:56:03;;;;;;;0.00;0.00;;;17.50;99.90;;;;;;5099105;28;20464;-80
2023/09/30 09:58:33;;;;;;;0.10;0.10;;;17.20;99.90;;;;;;5100909;28;20536;-80
2023/09/30 10:01:01;;;;;;;0.10;0.10;;;16.90;99.90;;;;;;5104246;28;20526;-80
2023/09/30 10:03:27;;;;;;;0.10;0.10;;;16.80;99.90;;;;;;5091207;28;20498;-81
2023/09/30 10:05:53;;;;;;;0.10;0.10;;;17.50;99.90;;;;;;5084576;28;20874;-81
2023/09/30 10:08:22;;;;;;;0.00;0.00;;;18.70;99.90;;;;;;5099843;28;20174;-81
2023/09/30 10:10:48;;;;;;;0.10;0.10;;;19.10;99.90;;;;;;5101181;28;20431;-80
2023/09/30 10:14:00;;;;;;;0.00;0.00;;;19.60;99.90;;;;;;5093756;28;20432;-82
2023/09/30 10:16:38;;;;;;;0.00;0.00;;;19.70;99.90;;;;;;5095220;28;20439;-81
2023/09/30 10:19:12;;;;;;;0.00;0.00;;;20.00;99.90;;;;;;5074918;28;20422;-83
2023/09/30 10:21:37;;;;;;;0.00;0.00;;;20.40;99.90;;;;;;5090116;28;20477;-85
2023/09/30 10:24:25;;;;;;;0.10;0.00;;;20.40;99.90;;;;;;5090573;28;20440;-83
2023/09/30 10:27:32;;;;;;;0.00;0.00;;;20.60;99.90;;;;;;5085458;28;20188;-83
2023/09/30 10:30:10;;;;;;;0.00;0.00;;;20.90;99.90;;;;;;5091465;28;20419;-83
2023/09/30 10:32:51;;;;;;;0.00;0.00;;;21.10;99.90;;;;;;5091046;28;20414;-83
2023/09/30 10:35:21;;;;;;;0.00;0.00;;;21.60;99.90;;;;;;5081113;28;20473;-82
2023/09/30 10:37:48;;;;;;;0.10;0.00;;;22.20;99.90;;;;;;5076550;28;20455;-81
2023/09/30 10:40:28;;;;;;;0.00;0.00;;;22.10;99.90;;;;;;5061982;28;20480;-82
2023/09/30 10:42:57;;;;;;;0.00;0.00;;;21.40;99.90;;;;;;5086708;28;20450;-84
2023/09/30 10:45:42;;;;;;;0.00;0.00;;;21.00;99.90;;;;;;5068869;28;20447;-84
2023/09/30 10:48:32;;;;;;;0.10;0.00;;;21.30;99.90;;;;;;5082384;28;20509;-82
2023/09/30 10:51:00;;;;;;;0.00;0.00;;;20.80;99.90;;;;;;5051760;28;20479;-86
2023/09/30 10:53:30;;;;;;;0.00;0.00;;;19.90;99.90;;;;;;5069238;28;20424;-86
2023/09/30 10:56:00;;;;;;;0.07;0.00;;;19.90;99.90;;;;;;5081926;28;20455;-84
2023/09/30 10:58:44;;;;;;;0.10;0.00;;;19.60;99.90;;;;;;5089176;28;20439;-83
2023/09/30 11:01:13;;;;;;;0.10;0.00;;;19.00;99.90;;;;;;5073926;28;20484;-83
2023/09/30 11:03:39;;;;;;;0.00;0.00;;;19.20;99.90;;;;;;5079486;28;20510;-84
2023/09/30 11:06:05;;;;;;;0.10;0.00;;;20.50;99.90;;;;;;5086514;28;20466;-84
2023/09/30 11:08:32;;;;;;;0.10;0.00;;;21.20;99.90;;;;;;5079790;28;20474;-84
2023/09/30 11:10:57;;;;;;;0.10;0.00;;;21.70;99.90;;;;;;5084256;28;20189;-87
2023/09/30 11:13:24;;;;;;;0.10;0.00;;;21.30;99.90;;;;;;5094252;28;20435;-84
2023/09/30 11:16:01;;;;;;;0.10;0.00;;;20.00;99.90;;;;;;5089328;28;20201;-84
2023/09/30 11:18:26;;;;;;;0.10;0.00;;;19.30;99.90;;;;;;5092330;28;20423;-85
2023/09/30 11:21:12;;;;;;;0.10;0.00;;;19.00;99.90;;;;;;5090719;28;20590;-85
2023/09/30 11:23:40;;;;;;;0.10;0.00;;;18.80;99.90;;;;;;5088093;28;20789;-84
2023/09/30 11:26:06;;;;;;;0.10;0.10;;;18.50;99.90;;;;;;5093679;28;20542;-84
2023/09/30 11:28:40;;;;;;;0.10;0.00;;;18.50;99.90;;;;;;5069825;28;21017;-84
2023/09/30 11:31:13;;;;;;;0.10;0.00;;;18.20;99.90;;;;;;5082246;28;20193;-85
2023/09/30 11:33:52;;;;;;;0.10;0.00;;;19.60;99.90;;;;;;5071065;28;20463;-84
2023/09/30 11:36:20;;;;;;;0.00;0.00;;;19.40;99.90;;;;;;5097670;28;20474;-84
2023/09/30 11:38:47;;;;;;;0.10;0.00;;;19.50;99.90;;;;;;5081581;28;20497;-83
2023/09/30 11:41:13;;;;;;;0.10;0.10;;;19.00;99.90;;;;;;5089220;28;20480;-84
2023/09/30 11:43:57;;;;;;;0.10;0.10;;;18.80;99.90;;;;;;5090543;28;20782;-85
2023/09/30 11:46:27;;;;;;;0.00;0.00;;;18.20;99.90;;;;;;5081512;28;21046;-83
2023/09/30 11:49:01;;;;;;;0.10;0.00;;;17.80;99.90;;;;;;5096742;28;20441;-83
2023/09/30 11:51:28;;;;;;;0.00;0.00;;;17.70;99.90;;;;;;5099158;28;20462;-83
2023/09/30 11:53:54;;;;;;;0.10;0.00;;;17.80;99.90;;;;;;5108498;28;20415;-82
2023/09/30 11:56:22;;;;;;;0.10;0.10;;;17.70;99.90;;;;;;5106172;28;20800;-82
2023/09/30 11:58:48;;;;;;;0.10;0.10;;;17.50;99.90;;;;;;5090826;28;20438;-85
2023/09/30 12:01:14;;;;;;;0.10;0.10;;;17.50;99.90;;;;;;5074255;28;20474;-82
2023/09/30 12:03:40;;;;;;;0.10;0.10;;;17.40;99.90;;;;;;5074648;28;20516;-83
2023/09/30 12:06:13;;;;;;;0.10;0.10;;;17.40;99.90;;;;;;5096241;28;20452;-83
2023/09/30 12:08:40;;;;;;;0.10;0.10;;;17.40;99.90;;;;;;5096459;28;20200;-83
2023/09/30 12:11:05;;;;;;;0.10;0.10;;;17.70;99.90;;;;;;5093019;28;20434;-82
2023/09/30 12:13:31;;;;;;;0.10;0.10;;;17.70;99.90;;;;;;5103890;28;20468;-82
2023/09/30 12:15:57;;;;;;;0.10;0.00;;;19.20;99.90;;;;;;5101664;28;20181;-83
2023/09/30 12:18:26;;;;;;;0.10;0.00;;;20.40;99.90;;;;;;5091492;28;20188;-84
2023/09/30 12:20:52;;;;;;;0.10;0.00;;;21.20;99.90;;;;;;5089260;28;20699;-83
2023/09/30 12:23:18;;;;;;;0.10;0.00;;;20.20;99.90;;;;;;5068174;28;20771;-83
2023/09/30 12:25:44;;;;;;;0.10;0.10;;;20.10;99.90;;;;;;5083958;28;20189;-83
2023/09/30 12:28:10;;;;;;;0.10;0.00;;;19.50;99.90;;;;;;5090789;28;20499;-84
2023/09/30 12:30:36;;;;;;;0.10;0.00;;;19.60;99.90;;;;;;5091113;28;20184;-84
2023/09/30 12:33:01;;;;;;;0.10;0.00;;;20.20;99.90;;;;;;5073177;28;20780;-83
2023/09/30 12:35:27;;;;;;;0.10;0.00;;;20.80;99.90;;;;;;5091623;28;20638;-84
2023/09/30 12:37:53;;;;;;;0.10;0.00;;;21.70;99.90;;;;;;5075283;28;20203;-85
2023/09/30 12:40:19;;;;;;;0.10;0.00;;;22.10;99.90;;;;;;5070490;28;20269;-84
2023/09/30 12:42:45;;;;;;;0.10;0.00;;;22.10;99.90;;;;;;5094817;28;20223;-86
2023/09/30 12:45:11;;;;;;;0.10;0.00;;;22.80;99.90;;;;;;5102360;28;20253;-86
2023/09/30 12:47:36;;;;;;;0.10;0.00;;;22.50;99.90;;;;;;5097552;28;21026;-86
2023/09/30 12:50:03;;;;;;;0.10;0.00;;;21.80;99.90;;;;;;5090421;28;20434;-85